Terminal Aerodrome Forecast
Issued by NWS

Home | Current Version | Previous Version | Text Only | Print | Product List | Glossary On
Versions: 1 2 3 4 5 6 7 8 9 10 11 12
000
FTUS42 KTAE 011700 RRA
TAFABY
TAF
KABY 011748Z 0118/0218 18014G20KT P6SM FEW050 SCT250
     FM020000 19014KT 6SM RA OVC015
     FM020600 22013KT P6SM -SHRA OVC007
     FM020900 25012KT P6SM VCSH OVC007
     FM021100 29013G20KT P6SM BKN025
     FM021300 30015G24KT P6SM SCT050=

USA.gov is the U.S. government's official web portal to all federal, state and local government web resources and services.